Delphis Riga — VRQN8 — position and weather

sailwx.info

Track history (hours):
 
Tides and Currents Weather Stations Pressure Air Temp Water Temp Dewpoint Dewpoint Depression Visibility Wind Speed Wind Dir Waves Ship Positions

Delphis Riga

Last reported at 2018-Jul-23 03:59 UTC. Time now 2018-Jul-23 04:03 UTC.
Position N 37°57' E 023°35'.

Length 178 m; draft 8.6 m.

Type: Ship (hazmat cat D). MMSI: 477234800.

Date/timePositionNaut miles runAvg speedWind from/ knotsBaromVisibWave heightAir tempDewpointWater temp
2018-Jul-23 03:59N 37°57' E 023°35'0 0.0
2018-Jul-23 03:29N 37°57' E 023°35'0 0.0
2018-Jul-23 02:59N 37°57' E 023°35'0 0.0
2018-Jul-23 02:29N 37°57' E 023°35'0 0.0
2018-Jul-23 01:59N 37°57' E 023°35'0 0.0
2018-Jul-23 01:29N 37°57' E 023°35'0 0.0
2018-Jul-23 00:59N 37°57' E 023°35'0 0.0
2018-Jul-23 00:29N 37°57' E 023°35'0 0.0
2018-Jul-22 23:59N 37°57' E 023°35'0 0.0
2018-Jul-22 23:29N 37°57' E 023°35'0 0.0
2018-Jul-22 22:59N 37°57' E 023°35'0 0.0
2018-Jul-22 22:29N 37°57' E 023°35'0 0.0
2018-Jul-22 21:59N 37°57' E 023°35'0 0.0
2018-Jul-22 21:29N 37°57' E 023°35'0 0.0
2018-Jul-22 20:56N 37°57' E 023°35'0 0.0
2018-Jul-22 20:29N 37°57' E 023°35'0 0.0
2018-Jul-22 19:59N 37°57' E 023°35'0 0.0
2018-Jul-22 19:29N 37°57' E 023°35'0 0.0
2018-Jul-22 18:59N 37°57' E 023°35'0 0.0
2018-Jul-22 18:29N 37°57' E 023°35'0 0.0
2018-Jul-22 17:59N 37°57' E 023°35'0 0.0
2018-Jul-22 17:29N 37°57' E 023°35'0 0.0
2018-Jul-22 16:59N 37°57' E 023°35'0 0.0
2018-Jul-22 16:29N 37°57' E 023°35'0 0.0
2018-Jul-22 15:59N 37°57' E 023°35'0 0.0
2018-Jul-22 14:59N 37°57' E 023°35'0 0.0
2018-Jul-22 14:29N 37°57' E 023°35'0 0.0
2018-Jul-22 13:59N 37°57' E 023°35'0 0.0
2018-Jul-22 13:29N 37°57' E 023°35'0 0.0
2018-Jul-22 12:59N 37°57' E 023°35'0 0.0
2018-Jul-22 12:29N 37°57' E 023°35'0 0.0
2018-Jul-22 11:59N 37°57' E 023°35'0 0.0
2018-Jul-22 11:30N 37°57' E 023°35'2 3.3
2018-Jul-22 11:00N 37°56' E 023°35'3 5.7
2018-Jul-22 10:30N 37°53' E 023°37'4 8.8
2018-Jul-22 10:00N 37°50' E 023°40'612.6
2018-Jul-22 09:30N 37°44' E 023°43'612.8
2018-Jul-22 09:00N 37°38' E 023°46'714.1
2018-Jul-22 08:30N 37°31' E 023°44'715.1
2018-Jul-22 08:00N 37°24' E 023°42'815.2
2018-Jul-22 07:30N 37°17' E 023°39'815.0
2018-Jul-22 07:00N 37°09' E 023°38'815.1
2018-Jul-22 06:30N 37°02' E 023°35'815.0
2018-Jul-22 06:00N 36°55' E 023°31'1414.3
2018-Jul-22 05:03N 36°42' E 023°27'114.3
2018-Jul-22 05:00N 36°41' E 023°27'1413.3
2018-Jul-22 03:59N 36°29' E 023°19'711.5
2018-Jul-22 03:24N 36°23' E 023°16'513.7
2018-Jul-22 03:00N 36°23' E 023°09'56413.5
2018-Jul-20 09:05N 43°18' E 014°52'114.4
2018-Jul-20 08:59N 43°19' E 014°51'714.5
2018-Jul-20 08:29N 43°22' E 014°41'714.3
2018-Jul-20 07:59N 43°25' E 014°32'714.5
2018-Jul-20 07:30N 43°27' E 014°23'714.1
2018-Jul-20 06:59N 43°30' E 014°14'714.7
2018-Jul-20 06:30N 43°33' E 014°05'814.7
2018-Jul-20 05:57N 43°36' E 013°55'614.6
2018-Jul-20 05:30N 43°39' E 013°47'12 0.8
2018-Jul-19 14:47N 43°37' E 013°30'0 0.0
2018-Jul-19 14:29N 43°37' E 013°30'0 0.0
2018-Jul-19 12:31N 43°37' E 013°30'0 0.4
2018-Jul-19 12:24N 43°37' E 013°30'4 4.2
2018-Jul-19 11:31N 43°40' E 013°33'1 7.7
2018-Jul-19 11:27N 43°41' E 013°33'3 6.8
2018-Jul-19 11:00N 43°42' E 013°37'2 5.0
2018-Jul-19 10:30N 43°44' E 013°40'912.9
2018-Jul-19 09:49N 43°49' E 013°50'713.3
2018-Jul-19 09:19N 43°55' E 013°45'613.4
2018-Jul-19 08:53N 43°58' E 013°39'813.5
2018-Jul-19 08:16N 44°03' E 013°29'413.7
2018-Jul-19 07:57N 44°06' E 013°25'613.6
2018-Jul-19 07:30N 44°09' E 013°18'613.3
2018-Jul-19 07:00N 44°14' E 013°12'713.5
2018-Jul-19 06:30N 44°21' E 013°09'713.7
2018-Jul-19 06:00N 44°27' E 013°06'714.0
2018-Jul-19 05:31N 44°34' E 013°03'714.0
2018-Jul-19 05:01N 44°41' E 013°00'713.8
2018-Jul-19 04:29N 44°47' E 012°57'713.6
2018-Jul-19 04:00N 44°53' E 012°52'713.8
2018-Jul-19 03:30N 44°59' E 012°47'714.0
2018-Jul-19 03:00N 45°05' E 012°43'713.7
2018-Jul-19 02:30N 45°10' E 012°35'612.4
2018-Jul-19 02:00N 45°15' E 012°30'713.5
2018-Jul-19 01:30N 45°19' E 012°23'510.0
2018-Jul-19 00:59N 45°21' E 012°16'4 8.3
2018-Jul-19 00:30N 45°25' E 012°16'2 4.3
2018-Jul-19 00:00N 45°27' E 012°16'0 0.3
2018-Jul-18 23:29N 45°27' E 012°15'1 1.1
2018-Jul-18 22:58N 45°27' E 012°15'0 0.0
2018-Jul-18 22:25N 45°27' E 012°15'0 0.0
2018-Jul-18 21:55N 45°27' E 012°15'0 0.0
2018-Jul-18 21:28N 45°27' E 012°15'0 0.0
2018-Jul-18 19:55N 45°27' E 012°15'0 0.0
2018-Jul-18 19:25N 45°27' E 012°15'0 0.0
2018-Jul-18 18:55N 45°27' E 012°15'0 0.0
2018-Jul-18 18:22N 45°27' E 012°15'0 0.0
2018-Jul-18 17:52N 45°27' E 012°15'0 0.0
2018-Jul-18 17:25N 45°27' E 012°15'0 0.0
2018-Jul-18 16:52N 45°27' E 012°15'0 0.0
2018-Jul-18 16:25N 45°27' E 012°15'0 0.0
2018-Jul-18 15:58N 45°27' E 012°15'0 0.0
2018-Jul-18 15:28N 45°27' E 012°15'0 0.0
2018-Jul-18 14:58N 45°27' E 012°15'0 0.0
2018-Jul-18 14:22N 45°27' E 012°15'0 0.0
2018-Jul-18 13:28N 45°27' E 012°15'0 0.0
2018-Jul-18 12:58N 45°27' E 012°15'0 0.0
2018-Jul-18 12:28N 45°27' E 012°15'0 0.0
2018-Jul-18 11:37N 45°27' E 012°15'0 0.0
2018-Jul-18 11:28N 45°27' E 012°15'0 0.0
2018-Jul-18 10:28N 45°27' E 012°15'0 0.0
2018-Jul-18 09:58N 45°27' E 012°15'0 0.0
2018-Jul-18 09:19N 45°27' E 012°15'0 0.0
2018-Jul-18 08:58N 45°27' E 012°15'0 0.0
2018-Jul-18 08:25N 45°27' E 012°15'0 0.0
2018-Jul-18 07:55N 45°27' E 012°15'0 0.0
2018-Jul-18 07:19N 45°27' E 012°15'0 0.0
2018-Jul-18 06:57N 45°27' E 012°15'0 0.1
2018-Jul-18 06:28N 45°27' E 012°15'3 3.6
2018-Jul-18 05:46N 45°25' E 012°16'2 6.1
2018-Jul-18 05:30N 45°23' E 012°16'3 6.9
2018-Jul-18 05:00N 45°20' E 012°18'4 7.7
2018-Jul-18 04:30N 45°19' E 012°24'4 7.1
2018-Jul-18 04:00N 45°18' E 012°28'3 6.0
2018-Jul-18 03:30N 45°17' E 012°32'612.2
2018-Jul-18 03:00N 45°20' E 012°40'612.0
2018-Jul-18 02:30N 45°24' E 012°47'611.8
2018-Jul-18 02:00N 45°28' E 012°53'2 3.1
2018-Jul-18 01:31N 45°29' E 012°55'0 0.0
2018-Jul-18 01:01N 45°29' E 012°55'0 0.1
2018-Jul-18 00:30N 45°29' E 012°55'0 0.1
2018-Jul-18 00:01N 45°29' E 012°55'0 0.1
2018-Jul-17 23:30N 45°29' E 012°55'0 0.7
2018-Jul-17 23:00N 45°28' E 012°55'2 4.3
2018-Jul-17 22:30N 45°28' E 012°58'4 8.9
2018-Jul-17 22:00N 45°29' E 013°04'510.8
2018-Jul-17 21:30N 45°31' E 013°11'510.7
2018-Jul-17 21:01N 45°33' E 013°18'510.5
2018-Jul-17 20:31N 45°35' E 013°25'510.7
2018-Jul-17 20:01N 45°37' E 013°32'5 9.9
2018-Jul-17 19:30N 45°36' E 013°39'4 7.1
2018-Jul-17 18:56N 45°33' E 013°43'1 1.3
2018-Jul-17 18:30N 45°33' E 013°44'0 0.0
2018-Jul-17 17:54N 45°33' E 013°44'0 0.0
2018-Jul-17 17:27N 45°33' E 013°44'0 0.0
2018-Jul-17 16:57N 45°33' E 013°44'0 0.0
2018-Jul-17 16:30N 45°33' E 013°44'0 0.0
2018-Jul-17 16:00N 45°33' E 013°44'0 0.0
2018-Jul-17 15:27N 45°33' E 013°44'0 0.0
2018-Jul-17 14:48N 45°33' E 013°44'0 0.0
2018-Jul-17 14:27N 45°33' E 013°44'0 0.0
2018-Jul-17 14:00N 45°33' E 013°44'0 0.0
2018-Jul-17 13:30N 45°33' E 013°44'0 0.0
2018-Jul-17 12:51N 45°33' E 013°44'0 0.0
2018-Jul-17 12:30N 45°33' E 013°44'0 0.0
2018-Jul-17 12:00N 45°33' E 013°44'0 0.0
2018-Jul-17 11:30N 45°33' E 013°44'0 0.0
2018-Jul-17 11:00N 45°33' E 013°44'0 0.0
2018-Jul-17 10:30N 45°33' E 013°44'0 0.0
2018-Jul-17 09:51N 45°33' E 013°44'0 0.0
2018-Jul-17 09:18N 45°33' E 013°44'0 0.0
2018-Jul-17 09:00N 45°33' E 013°44'0 0.0
2018-Jul-17 08:30N 45°33' E 013°44'0 0.0
2018-Jul-17 08:00N 45°33' E 013°44'0 0.0
2018-Jul-17 07:30N 45°33' E 013°44'0 0.0
2018-Jul-17 06:51N 45°33' E 013°44'0 0.0
2018-Jul-17 06:30N 45°33' E 013°44'0 0.0
2018-Jul-17 05:54N 45°33' E 013°44'0 0.0
2018-Jul-17 05:30N 45°33' E 013°44'0 0.0
2018-Jul-17 04:45N 45°33' E 013°44'0 0.0
2018-Jul-17 04:30N 45°33' E 013°44'0 0.0
2018-Jul-17 04:00N 45°33' E 013°44'0 0.0
2018-Jul-17 03:30N 45°33' E 013°44'0 0.0
2018-Jul-17 02:57N 45°33' E 013°44'0 0.0
2018-Jul-17 02:24N 45°33' E 013°44'0 0.0
2018-Jul-17 02:00N 45°33' E 013°44'0 0.0
2018-Jul-17 01:30N 45°33' E 013°44'0 0.0
2018-Jul-17 01:00N 45°33' E 013°44'0 0.0
2018-Jul-17 00:24N 45°33' E 013°44'0 0.0
2018-Jul-16 23:30N 45°33' E 013°44'0 0.0
2018-Jul-16 23:00N 45°33' E 013°44'0 0.0
2018-Jul-16 22:27N 45°33' E 013°44'0 0.0
2018-Jul-16 22:00N 45°33' E 013°44'0 0.0
2018-Jul-16 21:27N 45°33' E 013°44'0 0.0
2018-Jul-16 21:00N 45°33' E 013°44'0 0.3
2018-Jul-16 20:30N 45°33' E 013°44'2 4.0
2018-Jul-16 20:00N 45°34' E 013°41'1 1.9
2018-Jul-16 19:31N 45°35' E 013°40'1 1.0
2018-Jul-16 18:56N 45°35' E 013°40'0 0.0
2018-Jul-16 18:29N 45°35' E 013°40'0 0.0
2018-Jul-16 17:53N 45°35' E 013°40'0 0.0
2018-Jul-16 17:29N 45°35' E 013°40'0 0.0
2018-Jul-16 16:59N 45°35' E 013°40'0 0.0
2018-Jul-16 16:29N 45°35' E 013°40'0 0.0
2018-Jul-16 15:50N 45°35' E 013°40'0 0.0
2018-Jul-16 15:29N 45°35' E 013°40'0 0.0
2018-Jul-16 14:59N 45°35' E 013°40'0 0.1
2018-Jul-16 14:26N 45°35' E 013°40'0 0.0
2018-Jul-16 13:59N 45°35' E 013°40'0 0.0
2018-Jul-16 13:29N 45°35' E 013°40'0 0.0
2018-Jul-16 12:59N 45°35' E 013°40'0 0.0
2018-Jul-16 12:29N 45°35' E 013°40'0 0.0
2018-Jul-16 11:56N 45°35' E 013°40'0 0.0
2018-Jul-16 11:26N 45°35' E 013°40'0 0.0
2018-Jul-16 10:50N 45°35' E 013°40'0 0.0
2018-Jul-16 10:29N 45°35' E 013°40'0 0.0
2018-Jul-16 09:59N 45°35' E 013°40'0 0.0
2018-Jul-16 09:29N 45°35' E 013°40'0 0.0
2018-Jul-16 08:59N 45°35' E 013°40'0 0.1
2018-Jul-16 08:29N 45°35' E 013°40'0 0.0
2018-Jul-16 07:56N 45°35' E 013°40'0 0.0
2018-Jul-16 07:29N 45°35' E 013°40'0 0.1
2018-Jul-16 06:56N 45°35' E 013°40'0 0.0
2018-Jul-16 06:23N 45°35' E 013°40'0 0.0
2018-Jul-16 05:59N 45°35' E 013°40'0 0.1
2018-Jul-16 05:29N 45°35' E 013°40'0 0.0
2018-Jul-16 04:59N 45°35' E 013°40'0 0.1
2018-Jul-16 04:29N 45°35' E 013°40'0 0.0
2018-Jul-16 03:59N 45°35' E 013°40'0 0.0
2018-Jul-16 03:26N 45°35' E 013°40'0 0.1
2018-Jul-16 02:59N 45°35' E 013°40'0 0.1
2018-Jul-16 02:29N 45°35' E 013°40'0 0.0
2018-Jul-16 01:59N 45°35' E 013°40'0 0.0
2018-Jul-16 01:29N 45°35' E 013°40'0 0.2
2018-Jul-16 00:59N 45°35' E 013°40'0 0.1
2018-Jul-16 00:26N 45°35' E 013°40'0 0.0
2018-Jul-15 23:59N 45°35' E 013°40'0 0.0
2018-Jul-15 23:29N 45°35' E 013°40'0 0.0
2018-Jul-15 22:59N 45°35' E 013°40'0 0.0
2018-Jul-15 22:30N 45°35' E 013°40'0 0.3
2018-Jul-15 22:00N 45°35' E 013°40'1 1.4
2018-Jul-15 21:30N 45°35' E 013°39'2 4.3
2018-Jul-15 21:00N 45°35' E 013°36'4 8.6
2018-Jul-15 20:30N 45°34' E 013°30'510.3
2018-Jul-15 20:00N 45°31' E 013°24'4 8.0
2018-Jul-15 19:30N 45°28' E 013°19'510.1
2018-Jul-15 19:00N 45°25' E 013°14'5 9.5
2018-Jul-15 18:30N 45°20' E 013°12'510.7
2018-Jul-15 18:00N 45°15' E 013°14'510.8
2018-Jul-15 17:30N 45°10' E 013°16'610.6
2018-Jul-15 16:59N 45°05' E 013°21'510.7
2018-Jul-15 16:30N 45°01' E 013°25'510.6
2018-Jul-15 16:00N 44°57' E 013°30'510.4
2018-Jul-15 15:30N 44°53' E 013°35'510.2
2018-Jul-15 15:00N 44°50' E 013°40'510.1
2018-Jul-15 14:29N 44°46' E 013°44'8 9.4
2018-Jul-15 13:36N 44°42' E 013°55'310.1
2018-Jul-15 13:19N 44°42' E 013°59'310.2
2018-Jul-15 13:00N 44°44' E 014°02'510.6
2018-Jul-15 12:30N 44°48' E 014°07'810.7
2018-Jul-15 11:48N 44°55' E 014°11'2310.3
2018-Jul-15 09:36N 45°16' E 014°23'3 0.2
2018-Jul-14 19:56N 45°19' E 014°26'2 5.1
2018-Jul-14 19:30N 45°17' E 014°23'2 3.3
2018-Jul-14 18:48N 45°16' E 014°21'20 9.9
2018-Jul-14 16:46N 44°56' E 014°13'813.6
2018-Jul-14 16:13N 44°49' E 014°09'313.5
2018-Jul-14 16:00N 44°46' E 014°08'713.6
2018-Jul-14 15:30N 44°40' E 014°08'713.6
2018-Jul-14 15:00N 44°33' E 014°09'1313.5
2018-Jul-14 14:00N 44°20' E 014°16'  
Track history (hours):
 
Tides and Currents Weather Stations Pressure Air Temp Water Temp Dewpoint Dewpoint Depression Visibility Wind Speed Wind Dir Waves Ship Positions

Delphis Riga

Last reported at 2018-Jul-23 03:59 UTC. Time now 2018-Jul-23 04:03 UTC.
Position N 37°57' E 023°35'.

Length 178 m; draft 8.6 m.

Type: Ship (hazmat cat D). MMSI: 477234800.

Date/timePositionNaut miles runAvg speedWind from/ knotsBaromVisibWave heightAir tempDewpointWater temp
2018-Jul-23 03:59N 37°57' E 023°35'0 0.0
2018-Jul-23 03:29N 37°57' E 023°35'0 0.0
2018-Jul-23 02:59N 37°57' E 023°35'0 0.0
2018-Jul-23 02:29N 37°57' E 023°35'0 0.0
2018-Jul-23 01:59N 37°57' E 023°35'0 0.0
2018-Jul-23 01:29N 37°57' E 023°35'0 0.0
2018-Jul-23 00:59N 37°57' E 023°35'0 0.0
2018-Jul-23 00:29N 37°57' E 023°35'0 0.0
2018-Jul-22 23:59N 37°57' E 023°35'0 0.0
2018-Jul-22 23:29N 37°57' E 023°35'0 0.0
2018-Jul-22 22:59N 37°57' E 023°35'0 0.0
2018-Jul-22 22:29N 37°57' E 023°35'0 0.0
2018-Jul-22 21:59N 37°57' E 023°35'0 0.0
2018-Jul-22 21:29N 37°57' E 023°35'0 0.0
2018-Jul-22 20:56N 37°57' E 023°35'0 0.0
2018-Jul-22 20:29N 37°57' E 023°35'0 0.0
2018-Jul-22 19:59N 37°57' E 023°35'0 0.0
2018-Jul-22 19:29N 37°57' E 023°35'0 0.0
2018-Jul-22 18:59N 37°57' E 023°35'0 0.0
2018-Jul-22 18:29N 37°57' E 023°35'0 0.0
2018-Jul-22 17:59N 37°57' E 023°35'0 0.0
2018-Jul-22 17:29N 37°57' E 023°35'0 0.0
2018-Jul-22 16:59N 37°57' E 023°35'0 0.0
2018-Jul-22 16:29N 37°57' E 023°35'0 0.0
2018-Jul-22 15:59N 37°57' E 023°35'0 0.0
2018-Jul-22 14:59N 37°57' E 023°35'0 0.0
2018-Jul-22 14:29N 37°57' E 023°35'0 0.0
2018-Jul-22 13:59N 37°57' E 023°35'0 0.0
2018-Jul-22 13:29N 37°57' E 023°35'0 0.0
2018-Jul-22 12:59N 37°57' E 023°35'0 0.0
2018-Jul-22 12:29N 37°57' E 023°35'0 0.0
2018-Jul-22 11:59N 37°57' E 023°35'0 0.0
2018-Jul-22 11:30N 37°57' E 023°35'2 3.3
2018-Jul-22 11:00N 37°56' E 023°35'3 5.7
2018-Jul-22 10:30N 37°53' E 023°37'4 8.8
2018-Jul-22 10:00N 37°50' E 023°40'612.6
2018-Jul-22 09:30N 37°44' E 023°43'612.8
2018-Jul-22 09:00N 37°38' E 023°46'714.1
2018-Jul-22 08:30N 37°31' E 023°44'715.1
2018-Jul-22 08:00N 37°24' E 023°42'815.2
2018-Jul-22 07:30N 37°17' E 023°39'815.0
2018-Jul-22 07:00N 37°09' E 023°38'815.1
2018-Jul-22 06:30N 37°02' E 023°35'815.0
2018-Jul-22 06:00N 36°55' E 023°31'1414.3
2018-Jul-22 05:03N 36°42' E 023°27'114.3
2018-Jul-22 05:00N 36°41' E 023°27'1413.3
2018-Jul-22 03:59N 36°29' E 023°19'711.5
2018-Jul-22 03:24N 36°23' E 023°16'513.7
2018-Jul-22 03:00N 36°23' E 023°09'56413.5
2018-Jul-20 09:05N 43°18' E 014°52'114.4
2018-Jul-20 08:59N 43°19' E 014°51'714.5
2018-Jul-20 08:29N 43°22' E 014°41'714.3
2018-Jul-20 07:59N 43°25' E 014°32'714.5
2018-Jul-20 07:30N 43°27' E 014°23'714.1
2018-Jul-20 06:59N 43°30' E 014°14'714.7
2018-Jul-20 06:30N 43°33' E 014°05'814.7
2018-Jul-20 05:57N 43°36' E 013°55'614.6
2018-Jul-20 05:30N 43°39' E 013°47'12 0.8
2018-Jul-19 14:47N 43°37' E 013°30'0 0.0
2018-Jul-19 14:29N 43°37' E 013°30'0 0.0
2018-Jul-19 12:31N 43°37' E 013°30'0 0.4
2018-Jul-19 12:24N 43°37' E 013°30'4 4.2
2018-Jul-19 11:31N 43°40' E 013°33'1 7.7
2018-Jul-19 11:27N 43°41' E 013°33'3 6.8
2018-Jul-19 11:00N 43°42' E 013°37'2 5.0
2018-Jul-19 10:30N 43°44' E 013°40'912.9
2018-Jul-19 09:49N 43°49' E 013°50'713.3
2018-Jul-19 09:19N 43°55' E 013°45'613.4
2018-Jul-19 08:53N 43°58' E 013°39'813.5
2018-Jul-19 08:16N 44°03' E 013°29'413.7
2018-Jul-19 07:57N 44°06' E 013°25'613.6
2018-Jul-19 07:30N 44°09' E 013°18'613.3
2018-Jul-19 07:00N 44°14' E 013°12'713.5
2018-Jul-19 06:30N 44°21' E 013°09'713.7
2018-Jul-19 06:00N 44°27' E 013°06'714.0
2018-Jul-19 05:31N 44°34' E 013°03'714.0
2018-Jul-19 05:01N 44°41' E 013°00'713.8
2018-Jul-19 04:29N 44°47' E 012°57'713.6
2018-Jul-19 04:00N 44°53' E 012°52'713.8
2018-Jul-19 03:30N 44°59' E 012°47'714.0
2018-Jul-19 03:00N 45°05' E 012°43'713.7
2018-Jul-19 02:30N 45°10' E 012°35'612.4
2018-Jul-19 02:00N 45°15' E 012°30'713.5
2018-Jul-19 01:30N 45°19' E 012°23'510.0
2018-Jul-19 00:59N 45°21' E 012°16'4 8.3
2018-Jul-19 00:30N 45°25' E 012°16'2 4.3
2018-Jul-19 00:00N 45°27' E 012°16'0 0.3
2018-Jul-18 23:29N 45°27' E 012°15'1 1.1
2018-Jul-18 22:58N 45°27' E 012°15'0 0.0
2018-Jul-18 22:25N 45°27' E 012°15'0 0.0
2018-Jul-18 21:55N 45°27' E 012°15'0 0.0
2018-Jul-18 21:28N 45°27' E 012°15'0 0.0
2018-Jul-18 19:55N 45°27' E 012°15'0 0.0
2018-Jul-18 19:25N 45°27' E 012°15'0 0.0
2018-Jul-18 18:55N 45°27' E 012°15'0 0.0
2018-Jul-18 18:22N 45°27' E 012°15'0 0.0
2018-Jul-18 17:52N 45°27' E 012°15'0 0.0
2018-Jul-18 17:25N 45°27' E 012°15'0 0.0
2018-Jul-18 16:52N 45°27' E 012°15'0 0.0
2018-Jul-18 16:25N 45°27' E 012°15'0 0.0
2018-Jul-18 15:58N 45°27' E 012°15'0 0.0
2018-Jul-18 15:28N 45°27' E 012°15'0 0.0
2018-Jul-18 14:58N 45°27' E 012°15'0 0.0
2018-Jul-18 14:22N 45°27' E 012°15'0 0.0
2018-Jul-18 13:28N 45°27' E 012°15'0 0.0
2018-Jul-18 12:58N 45°27' E 012°15'0 0.0
2018-Jul-18 12:28N 45°27' E 012°15'0 0.0
2018-Jul-18 11:37N 45°27' E 012°15'0 0.0
2018-Jul-18 11:28N 45°27' E 012°15'0 0.0
2018-Jul-18 10:28N 45°27' E 012°15'0 0.0
2018-Jul-18 09:58N 45°27' E 012°15'0 0.0
2018-Jul-18 09:19N 45°27' E 012°15'0 0.0
2018-Jul-18 08:58N 45°27' E 012°15'0 0.0
2018-Jul-18 08:25N 45°27' E 012°15'0 0.0
2018-Jul-18 07:55N 45°27' E 012°15'0 0.0
2018-Jul-18 07:19N 45°27' E 012°15'0 0.0
2018-Jul-18 06:57N 45°27' E 012°15'0 0.1
2018-Jul-18 06:28N 45°27' E 012°15'3 3.6
2018-Jul-18 05:46N 45°25' E 012°16'2 6.1
2018-Jul-18 05:30N 45°23' E 012°16'3 6.9
2018-Jul-18 05:00N 45°20' E 012°18'4 7.7
2018-Jul-18 04:30N 45°19' E 012°24'4 7.1
2018-Jul-18 04:00N 45°18' E 012°28'3 6.0
2018-Jul-18 03:30N 45°17' E 012°32'612.2
2018-Jul-18 03:00N 45°20' E 012°40'612.0
2018-Jul-18 02:30N 45°24' E 012°47'611.8
2018-Jul-18 02:00N 45°28' E 012°53'2 3.1
2018-Jul-18 01:31N 45°29' E 012°55'0 0.0
2018-Jul-18 01:01N 45°29' E 012°55'0 0.1
2018-Jul-18 00:30N 45°29' E 012°55'0 0.1
2018-Jul-18 00:01N 45°29' E 012°55'0 0.1
2018-Jul-17 23:30N 45°29' E 012°55'0 0.7
2018-Jul-17 23:00N 45°28' E 012°55'2 4.3
2018-Jul-17 22:30N 45°28' E 012°58'4 8.9
2018-Jul-17 22:00N 45°29' E 013°04'510.8
2018-Jul-17 21:30N 45°31' E 013°11'510.7
2018-Jul-17 21:01N 45°33' E 013°18'510.5
2018-Jul-17 20:31N 45°35' E 013°25'510.7
2018-Jul-17 20:01N 45°37' E 013°32'5 9.9
2018-Jul-17 19:30N 45°36' E 013°39'4 7.1
2018-Jul-17 18:56N 45°33' E 013°43'1 1.3
2018-Jul-17 18:30N 45°33' E 013°44'0 0.0
2018-Jul-17 17:54N 45°33' E 013°44'0 0.0
2018-Jul-17 17:27N 45°33' E 013°44'0 0.0
2018-Jul-17 16:57N 45°33' E 013°44'0 0.0
2018-Jul-17 16:30N 45°33' E 013°44'0 0.0
2018-Jul-17 16:00N 45°33' E 013°44'0 0.0
2018-Jul-17 15:27N 45°33' E 013°44'0 0.0
2018-Jul-17 14:48N 45°33' E 013°44'0 0.0
2018-Jul-17 14:27N 45°33' E 013°44'0 0.0
2018-Jul-17 14:00N 45°33' E 013°44'0 0.0
2018-Jul-17 13:30N 45°33' E 013°44'0 0.0
2018-Jul-17 12:51N 45°33' E 013°44'0 0.0
2018-Jul-17 12:30N 45°33' E 013°44'0 0.0
2018-Jul-17 12:00N 45°33' E 013°44'0 0.0
2018-Jul-17 11:30N 45°33' E 013°44'0 0.0
2018-Jul-17 11:00N 45°33' E 013°44'0 0.0
2018-Jul-17 10:30N 45°33' E 013°44'0 0.0
2018-Jul-17 09:51N 45°33' E 013°44'0 0.0
2018-Jul-17 09:18N 45°33' E 013°44'0 0.0
2018-Jul-17 09:00N 45°33' E 013°44'0 0.0
2018-Jul-17 08:30N 45°33' E 013°44'0 0.0
2018-Jul-17 08:00N 45°33' E 013°44'0 0.0
2018-Jul-17 07:30N 45°33' E 013°44'0 0.0
2018-Jul-17 06:51N 45°33' E 013°44'0 0.0
2018-Jul-17 06:30N 45°33' E 013°44'0 0.0
2018-Jul-17 05:54N 45°33' E 013°44'0 0.0
2018-Jul-17 05:30N 45°33' E 013°44'0 0.0
2018-Jul-17 04:45N 45°33' E 013°44'0 0.0
2018-Jul-17 04:30N 45°33' E 013°44'0 0.0
2018-Jul-17 04:00N 45°33' E 013°44'0 0.0
2018-Jul-17 03:30N 45°33' E 013°44'0 0.0
2018-Jul-17 02:57N 45°33' E 013°44'0 0.0
2018-Jul-17 02:24N 45°33' E 013°44'0 0.0
2018-Jul-17 02:00N 45°33' E 013°44'0 0.0
2018-Jul-17 01:30N 45°33' E 013°44'0 0.0
2018-Jul-17 01:00N 45°33' E 013°44'0 0.0
2018-Jul-17 00:24N 45°33' E 013°44'0 0.0
2018-Jul-16 23:30N 45°33' E 013°44'0 0.0
2018-Jul-16 23:00N 45°33' E 013°44'0 0.0
2018-Jul-16 22:27N 45°33' E 013°44'0 0.0
2018-Jul-16 22:00N 45°33' E 013°44'0 0.0
2018-Jul-16 21:27N 45°33' E 013°44'0 0.0
2018-Jul-16 21:00N 45°33' E 013°44'0 0.3
2018-Jul-16 20:30N 45°33' E 013°44'2 4.0
2018-Jul-16 20:00N 45°34' E 013°41'1 1.9
2018-Jul-16 19:31N 45°35' E 013°40'1 1.0
2018-Jul-16 18:56N 45°35' E 013°40'0 0.0
2018-Jul-16 18:29N 45°35' E 013°40'0 0.0
2018-Jul-16 17:53N 45°35' E 013°40'0 0.0
2018-Jul-16 17:29N 45°35' E 013°40'0 0.0
2018-Jul-16 16:59N 45°35' E 013°40'0 0.0
2018-Jul-16 16:29N 45°35' E 013°40'0 0.0
2018-Jul-16 15:50N 45°35' E 013°40'0 0.0
2018-Jul-16 15:29N 45°35' E 013°40'0 0.0
2018-Jul-16 14:59N 45°35' E 013°40'0 0.1
2018-Jul-16 14:26N 45°35' E 013°40'0 0.0
2018-Jul-16 13:59N 45°35' E 013°40'0 0.0
2018-Jul-16 13:29N 45°35' E 013°40'0 0.0
2018-Jul-16 12:59N 45°35' E 013°40'0 0.0
2018-Jul-16 12:29N 45°35' E 013°40'0 0.0
2018-Jul-16 11:56N 45°35' E 013°40'0 0.0
2018-Jul-16 11:26N 45°35' E 013°40'0 0.0
2018-Jul-16 10:50N 45°35' E 013°40'0 0.0
2018-Jul-16 10:29N 45°35' E 013°40'0 0.0
2018-Jul-16 09:59N 45°35' E 013°40'0 0.0
2018-Jul-16 09:29N 45°35' E 013°40'0 0.0
2018-Jul-16 08:59N 45°35' E 013°40'0 0.1
2018-Jul-16 08:29N 45°35' E 013°40'0 0.0
2018-Jul-16 07:56N 45°35' E 013°40'0 0.0
2018-Jul-16 07:29N 45°35' E 013°40'0 0.1
2018-Jul-16 06:56N 45°35' E 013°40'0 0.0
2018-Jul-16 06:23N 45°35' E 013°40'0 0.0
2018-Jul-16 05:59N 45°35' E 013°40'0 0.1
2018-Jul-16 05:29N 45°35' E 013°40'0 0.0
2018-Jul-16 04:59N 45°35' E 013°40'0 0.1
2018-Jul-16 04:29N 45°35' E 013°40'0 0.0
2018-Jul-16 03:59N 45°35' E 013°40'0 0.0
2018-Jul-16 03:26N 45°35' E 013°40'0 0.1
2018-Jul-16 02:59N 45°35' E 013°40'0 0.1
2018-Jul-16 02:29N 45°35' E 013°40'0 0.0
2018-Jul-16 01:59N 45°35' E 013°40'0 0.0
2018-Jul-16 01:29N 45°35' E 013°40'0 0.2
2018-Jul-16 00:59N 45°35' E 013°40'0 0.1
2018-Jul-16 00:26N 45°35' E 013°40'0 0.0
2018-Jul-15 23:59N 45°35' E 013°40'0 0.0
2018-Jul-15 23:29N 45°35' E 013°40'0 0.0
2018-Jul-15 22:59N 45°35' E 013°40'0 0.0
2018-Jul-15 22:30N 45°35' E 013°40'0 0.3
2018-Jul-15 22:00N 45°35' E 013°40'1 1.4
2018-Jul-15 21:30N 45°35' E 013°39'2 4.3
2018-Jul-15 21:00N 45°35' E 013°36'4 8.6
2018-Jul-15 20:30N 45°34' E 013°30'510.3
2018-Jul-15 20:00N 45°31' E 013°24'4 8.0
2018-Jul-15 19:30N 45°28' E 013°19'510.1
2018-Jul-15 19:00N 45°25' E 013°14'5 9.5
2018-Jul-15 18:30N 45°20' E 013°12'510.7
2018-Jul-15 18:00N 45°15' E 013°14'510.8
2018-Jul-15 17:30N 45°10' E 013°16'610.6
2018-Jul-15 16:59N 45°05' E 013°21'510.7
2018-Jul-15 16:30N 45°01' E 013°25'510.6
2018-Jul-15 16:00N 44°57' E 013°30'510.4
2018-Jul-15 15:30N 44°53' E 013°35'510.2
2018-Jul-15 15:00N 44°50' E 013°40'510.1
2018-Jul-15 14:29N 44°46' E 013°44'8 9.4
2018-Jul-15 13:36N 44°42' E 013°55'310.1
2018-Jul-15 13:19N 44°42' E 013°59'310.2
2018-Jul-15 13:00N 44°44' E 014°02'510.6
2018-Jul-15 12:30N 44°48' E 014°07'810.7
2018-Jul-15 11:48N 44°55' E 014°11'2310.3
2018-Jul-15 09:36N 45°16' E 014°23'3 0.2
2018-Jul-14 19:56N 45°19' E 014°26'2 5.1
2018-Jul-14 19:30N 45°17' E 014°23'2 3.3
2018-Jul-14 18:48N 45°16' E 014°21'20 9.9
2018-Jul-14 16:46N 44°56' E 014°13'813.6
2018-Jul-14 16:13N 44°49' E 014°09'313.5
2018-Jul-14 16:00N 44°46' E 014°08'713.6
2018-Jul-14 15:30N 44°40' E 014°08'713.6
2018-Jul-14 15:00N 44°33' E 014°09'1313.5
2018-Jul-14 14:00N 44°20' E 014°16'  

Dump ship's entire track history